Time;durP1;ratioP1;P1;durP2;ratioP2;P2;SDS_P1;SDS_P2;PMS_P1;PMS_P2;Temp;Humidity;BMP_temperature;BMP_pressure;BME280_temperature;BME280_humidity;BME280_pressure;Samples;Min_cycle;Max_cycle;Signal;HPM_P1;HPM_P2
2020/12/04 00:02:03;;;;;;;11.17;7.57;;;;;;;11.91;39.95;98230.06;4988782;28;20466;-78
2020/12/04 00:04:28;;;;;;;12.10;7.93;;;;;;;11.96;40.09;98231.66;4973651;28;20034;-79
2020/12/04 00:06:54;;;;;;;10.87;7.27;;;;;;;11.82;40.09;98224.16;4972423;28;20577;-78
2020/12/04 00:09:20;;;;;;;14.40;8.50;;;;;;;11.91;40.04;98228.09;4988688;28;20101;-78
2020/12/04 00:11:45;;;;;;;11.30;7.93;;;;;;;11.82;40.34;98229.63;4988704;28;20027;-79
2020/12/04 00:14:11;;;;;;;15.40;7.43;;;;;;;11.89;39.94;98224.19;4973760;28;20477;-78
2020/12/04 00:16:36;;;;;;;10.07;6.80;;;;;;;11.86;40.01;98224.94;4973611;28;20501;-78
2020/12/04 00:19:02;;;;;;;10.43;6.90;;;;;;;11.89;39.92;98226.91;4988577;28;20544;-78
2020/12/04 00:21:28;;;;;;;10.73;6.80;;;;;;;11.87;39.94;98235.53;4988553;28;20054;-78
2020/12/04 00:23:53;;;;;;;19.00;9.07;;;;;;;11.87;40.00;98230.03;4988551;28;20097;-79
2020/12/04 00:26:19;;;;;;;9.77;7.30;;;;;;;11.91;39.93;98217.16;4988504;28;20477;-78
2020/12/04 00:28:45;;;;;;;12.03;7.40;;;;;;;11.85;39.75;98221.41;4988592;28;20030;-78
2020/12/04 00:31:10;;;;;;;12.03;7.47;;;;;;;11.78;40.05;98217.81;4973541;28;20035;-78
2020/12/04 00:33:36;;;;;;;13.97;8.37;;;;;;;11.72;40.03;98227.56;4988475;28;20030;-78
2020/12/04 00:36:02;;;;;;;12.50;7.80;;;;;;;11.62;40.29;98218.13;4973508;28;20030;-77
2020/12/04 00:38:28;;;;;;;14.63;8.53;;;;;;;11.71;40.04;98224.03;4973444;28;20023;-77
2020/12/04 00:40:53;;;;;;;11.87;7.80;;;;;;;11.77;39.78;98229.94;4972699;28;20393;-77
2020/12/04 00:43:19;;;;;;;12.87;7.97;;;;;;;11.81;39.75;98234.31;4973484;28;20563;-77
2020/12/04 00:45:45;;;;;;;12.07;7.70;;;;;;;12.03;39.15;98237.94;4973367;28;20058;-77
2020/12/04 00:48:11;;;;;;;12.20;7.10;;;;;;;11.76;39.92;98225.63;4971931;28;20047;-77
2020/12/04 00:50:37;;;;;;;10.40;7.07;;;;;;;11.67;39.87;98224.03;4973242;28;20082;-78
2020/12/04 00:53:07;;;;;;;12.30;7.73;;;;;;;11.73;39.86;98226.41;4976028;28;20035;-77
2020/12/04 00:55:33;;;;;;;11.90;7.67;;;;;;;11.68;39.76;98219.34;4977041;28;20041;-77
2020/12/04 00:57:59;;;;;;;11.23;7.97;;;;;;;11.59;40.03;98216.94;4991551;28;20178;-77
2020/12/04 01:00:25;;;;;;;14.27;8.53;;;;;;;11.49;40.32;98211.41;4991922;28;20054;-78
2020/12/04 01:02:50;;;;;;;15.00;9.70;;;;;;;11.50;40.28;98207.50;4991871;28;20070;-78
2020/12/04 01:05:16;;;;;;;12.57;9.03;;;;;;;11.59;40.07;98205.22;4991506;28;20027;-80
2020/12/04 01:07:42;;;;;;;13.43;9.30;;;;;;;11.59;39.99;98216.16;4976403;28;20569;-78
2020/12/04 01:10:07;;;;;;;11.57;8.67;;;;;;;11.54;39.88;98205.56;4976727;28;20027;-77
2020/12/04 01:12:33;;;;;;;11.40;8.20;;;;;;;11.45;40.11;98196.91;4991682;28;20508;-78
2020/12/04 01:14:58;;;;;;;14.73;9.17;;;;;;;11.18;41.00;98199.03;4976345;28;20166;-78
2020/12/04 01:17:24;;;;;;;13.43;8.63;;;;;;;11.32;40.41;98201.88;4976646;28;20027;-79
2020/12/04 01:19:50;;;;;;;14.10;8.77;;;;;;;11.34;40.27;98189.44;4976546;28;20039;-78
2020/12/04 01:22:15;;;;;;;11.07;8.37;;;;;;;11.33;40.39;98195.25;4976255;28;20062;-78
2020/12/04 01:24:41;;;;;;;11.90;8.03;;;;;;;11.40;40.35;98190.63;4991435;28;20029;-78
2020/12/04 01:27:06;;;;;;;12.47;8.43;;;;;;;11.46;40.09;98199.25;4976240;28;20394;-77
2020/12/04 01:29:35;;;;;;;18.20;9.93;;;;;;;11.49;40.11;98192.25;4976319;28;20031;-78
2020/12/04 01:32:01;;;;;;;10.90;7.93;;;;;;;11.94;39.07;98194.50;4976291;28;20118;-79
2020/12/04 01:34:26;;;;;;;17.23;9.30;;;;;;;12.08;38.90;98187.50;4976278;28;20445;-78
2020/12/04 01:36:52;;;;;;;11.47;9.17;;;;;;;12.05;38.92;98194.56;4991176;28;20509;-78
2020/12/04 01:39:18;;;;;;;11.97;8.03;;;;;;;12.13;38.82;98195.38;4976049;28;20041;-78
2020/12/04 01:41:43;;;;;;;11.00;7.77;;;;;;;12.11;38.90;98190.28;4975989;28;20034;-78
2020/12/04 01:44:09;;;;;;;12.27;8.20;;;;;;;12.12;38.82;98189.09;4991118;28;20039;-78
2020/12/04 01:46:35;;;;;;;11.10;7.50;;;;;;;12.03;39.22;98190.63;4976090;28;20037;-78
2020/12/04 01:49:01;;;;;;;14.47;8.67;;;;;;;11.78;39.78;98190.47;4975838;28;20062;-78
2020/12/04 01:51:28;;;;;;;11.77;8.37;;;;;;;11.47;40.63;98187.16;4976050;28;20481;-77
2020/12/04 01:53:53;;;;;;;12.63;7.80;;;;;;;11.88;39.71;98181.56;4976045;28;20393;-78
2020/12/04 01:56:19;;;;;;;10.37;7.73;;;;;;;11.50;40.88;98185.63;4990824;28;20041;-78
2020/12/04 01:58:44;;;;;;;10.63;7.60;;;;;;;11.94;39.75;98194.50;4975898;28;20058;-78
2020/12/04 02:01:16;;;;;;;11.30;8.07;;;;;;;12.01;39.80;98206.63;4975840;28;20038;-78
2020/12/04 02:03:42;;;;;;;12.63;8.10;;;;;;;11.92;39.68;98199.56;4989702;28;20031;-77
2020/12/04 02:06:22;;;;;;;11.23;7.07;;;;;;;11.54;40.59;98216.50;4990635;28;20414;-78
2020/12/04 02:08:53;;;;;;;12.40;8.27;;;;;;;11.39;40.95;98212.88;4990674;28;20085;-78
2020/12/04 02:11:22;;;;;;;10.40;7.30;;;;;;;11.49;40.90;98203.97;4990627;28;20375;-78
2020/12/04 02:13:50;;;;;;;14.30;7.77;;;;;;;11.51;40.80;98203.59;4975644;28;20019;-77
2020/12/04 02:16:20;;;;;;;15.10;8.40;;;;;;;11.49;40.79;98198.50;4975650;28;20034;-78
2020/12/04 02:18:47;;;;;;;8.87;6.93;;;;;;;11.49;41.00;98198.50;4990431;28;20034;-78
2020/12/04 02:21:13;;;;;;;11.77;7.90;;;;;;;11.26;41.36;98203.41;4990379;28;20023;-77
2020/12/04 02:23:42;;;;;;;11.23;6.80;;;;;;;11.37;41.39;98194.13;4975396;28;20023;-77
2020/12/04 02:26:08;;;;;;;9.50;6.78;;;;;;;11.44;41.17;98193.38;4990272;28;20027;-78
2020/12/04 02:28:37;;;;;;;11.27;7.07;;;;;;;11.37;41.20;98207.78;4975370;28;20496;-78
2020/12/04 02:31:03;;;;;;;10.23;7.43;;;;;;;11.44;41.12;98203.53;4990160;28;20077;-78
2020/12/04 02:33:29;;;;;;;9.67;6.40;;;;;;;11.53;40.96;98195.78;4990062;28;20460;-78
2020/12/04 02:35:55;;;;;;;10.13;6.37;;;;;;;11.42;41.09;98203.94;4974898;28;20102;-78
2020/12/04 02:38:21;;;;;;;10.20;6.43;;;;;;;11.45;41.28;98181.28;4990073;28;20029;-78
2020/12/04 02:40:47;;;;;;;8.37;6.20;;;;;;;11.50;40.97;98191.09;4989897;28;20386;-78
2020/12/04 02:43:12;;;;;;;9.63;6.37;;;;;;;11.45;41.15;98186.75;4975058;28;20037;-77
2020/12/04 02:45:38;;;;;;;9.60;6.23;;;;;;;11.44;41.35;98189.88;4974599;28;20030;-77
2020/12/04 02:48:04;;;;;;;7.93;5.77;;;;;;;11.47;40.98;98189.88;4974430;28;20501;-77
2020/12/04 02:50:29;;;;;;;7.57;5.60;;;;;;;11.47;41.03;98191.84;4974925;28;20042;-77
2020/12/04 02:52:55;;;;;;;10.20;5.40;;;;;;;11.47;40.96;98187.16;4974883;28;20042;-78
2020/12/04 02:55:21;;;;;;;9.37;6.43;;;;;;;11.49;40.89;98195.78;4974779;28;20077;-78
2020/12/04 02:57:46;;;;;;;7.60;5.77;;;;;;;11.48;41.06;98185.19;4974829;28;20485;-78
2020/12/04 03:00:12;;;;;;;9.30;5.73;;;;;;;11.48;40.88;98191.44;4974703;28;20030;-77
2020/12/04 03:02:38;;;;;;;7.03;5.50;;;;;;;11.49;40.97;98195.78;4989666;28;20157;-77
2020/12/04 03:05:03;;;;;;;9.43;6.37;;;;;;;11.42;41.21;98198.47;4989550;28;20030;-78
2020/12/04 03:07:29;;;;;;;9.53;6.30;;;;;;;11.47;41.16;98189.09;4974509;28;20066;-78
2020/12/04 03:09:54;;;;;;;10.20;7.23;;;;;;;11.47;41.19;98183.63;4974522;28;20030;-77
2020/12/04 03:12:20;;;;;;;9.60;6.53;;;;;;;11.43;41.06;98185.56;4973803;28;20072;-78
2020/12/04 03:14:45;;;;;;;10.07;5.40;;;;;;;11.28;41.48;98196.41;4974202;28;20042;-77
2020/12/04 03:17:11;;;;;;;8.13;5.70;;;;;;;11.44;40.95;98181.66;4974532;28;20035;-77
2020/12/04 03:19:37;;;;;;;9.20;5.70;;;;;;;11.42;40.97;98175.81;4989022;28;20374;-78
2020/12/04 03:22:02;;;;;;;8.07;5.33;;;;;;;11.38;41.34;98183.97;4974102;28;20034;-77
2020/12/04 03:24:28;;;;;;;9.30;5.27;;;;;;;11.43;40.76;98186.34;4974317;28;20023;-78
2020/12/04 03:26:53;;;;;;;8.23;5.13;;;;;;;11.32;40.98;98186.25;4974195;28;20149;-77
2020/12/04 03:29:19;;;;;;;8.83;5.90;;;;;;;11.26;40.97;98182.34;4974344;28;20457;-78
2020/12/04 03:31:44;;;;;;;10.17;5.47;;;;;;;11.32;40.98;98190.94;4974235;28;20429;-78
2020/12/04 03:34:10;;;;;;;9.27;5.43;;;;;;;11.36;41.13;98175.38;4988725;28;20038;-77
2020/12/04 03:36:35;;;;;;;10.03;5.90;;;;;;;11.28;41.34;98179.22;4974204;28;20078;-78
2020/12/04 03:39:01;;;;;;;9.07;5.87;;;;;;;11.35;41.07;98171.06;4974140;28;20461;-77
2020/12/04 03:41:27;;;;;;;7.17;4.90;;;;;;;11.30;41.36;98171.41;4989024;28;20388;-78
2020/12/04 03:43:53;;;;;;;8.27;4.80;;;;;;;11.15;41.65;98173.25;4974079;28;20101;-77
2020/12/04 03:46:18;;;;;;;8.17;5.63;;;;;;;11.36;41.38;98165.22;4973959;28;20058;-77
2020/12/04 03:48:44;;;;;;;6.97;4.73;;;;;;;11.38;41.31;98165.63;4973625;28;20110;-78
2020/12/04 03:51:10;;;;;;;9.27;5.00;;;;;;;11.43;41.01;98167.22;4973967;28;20477;-78
2020/12/04 03:53:35;;;;;;;7.67;4.60;;;;;;;11.35;41.57;98155.44;4973659;28;20042;-77
2020/12/04 03:56:01;;;;;;;7.40;4.87;;;;;;;11.34;41.54;98155.84;4988464;28;20389;-78
2020/12/04 03:58:27;;;;;;;6.27;4.33;;;;;;;11.24;41.69;98157.31;4988785;28;20097;-78
2020/12/04 04:00:54;;;;;;;5.90;3.57;;;;;;;11.77;40.60;98156.06;4973839;28;20026;-78
2020/12/04 04:03:19;;;;;;;5.67;3.93;;;;;;;11.90;40.25;98151.88;4972976;28;20049;-78
2020/12/04 04:05:45;;;;;;;5.63;3.30;;;;;;;11.82;40.62;98153.00;4973074;28;20363;-78
2020/12/04 04:08:11;;;;;;;6.60;3.83;;;;;;;11.89;40.35;98139.38;4988701;28;20469;-77
2020/12/04 04:10:36;;;;;;;8.80;3.23;;;;;;;11.89;40.60;98139.38;4988753;28;20479;-77
2020/12/04 04:13:02;;;;;;;7.47;3.07;;;;;;;12.08;40.02;98144.50;4973301;28;20027;-78
2020/12/04 04:15:27;;;;;;;8.27;3.97;;;;;;;11.98;39.94;98139.78;4973795;28;20102;-78
2020/12/04 04:17:53;;;;;;;7.50;3.53;;;;;;;11.90;40.15;98135.44;4973641;28;20093;-78
2020/12/04 04:20:19;;;;;;;7.03;4.37;;;;;;;11.61;41.03;98142.69;4988571;28;20027;-77
2020/12/04 04:22:44;;;;;;;5.97;2.70;;;;;;;11.89;40.01;98131.94;4973605;28;20031;-77
2020/12/04 04:25:15;;;;;;;6.83;2.73;;;;;;;11.88;40.08;98138.59;4973687;28;20093;-77
2020/12/04 04:27:41;;;;;;;6.73;2.57;;;;;;;11.91;40.03;98129.59;4991304;28;20094;-78
2020/12/04 04:30:08;;;;;;;4.93;3.07;;;;;;;11.81;40.24;98135.03;4992468;28;20477;-78
2020/12/04 04:32:33;;;;;;;8.43;3.17;;;;;;;11.76;40.24;98146.28;4977452;28;20110;-77
2020/12/04 04:34:59;;;;;;;7.93;3.53;;;;;;;11.70;40.61;98137.66;4992321;28;20635;-78
2020/12/04 04:37:25;;;;;;;4.47;2.77;;;;;;;11.79;40.29;98151.00;4977385;28;20053;-78
2020/12/04 04:39:50;;;;;;;4.47;2.47;;;;;;;11.42;40.96;98141.03;4977382;28;20105;-77
2020/12/04 04:42:18;;;;;;;6.77;2.23;;;;;;;11.59;40.83;98154.03;4977311;28;20397;-77
2020/12/04 04:44:44;;;;;;;6.60;3.00;;;;;;;11.58;40.88;98151.69;4977191;28;20038;-77
2020/12/04 04:47:18;;;;;;;6.00;2.43;;;;;;;11.72;40.56;98156.44;4977147;28;20436;-78
2020/12/04 04:49:48;;;;;;;5.67;2.10;;;;;;;11.72;40.52;98159.97;4977208;28;20134;-78
2020/12/04 04:52:16;;;;;;;5.35;2.10;;;;;;;11.63;40.49;98163.03;4977043;28;20027;-78
2020/12/04 04:54:49;;;;;;;6.60;2.43;;;;;;;11.38;40.89;98164.84;4976972;28;20493;-77
2020/12/04 04:57:20;;;;;;;3.30;1.97;;;;;;;11.54;40.79;98161.81;4976939;28;20366;-77
2020/12/04 04:59:45;;;;;;;4.57;1.97;;;;;;;11.44;41.22;98159.81;4976998;28;20023;-77
2020/12/04 05:02:12;;;;;;;4.33;1.60;;;;;;;11.43;41.09;98153.53;4976911;28;20026;-78
2020/12/04 05:04:48;;;;;;;3.77;1.33;;;;;;;11.40;41.12;98148.81;4976865;28;20022;-77
2020/12/04 05:07:17;;;;;;;4.37;1.30;;;;;;;11.47;40.89;98154.34;4976704;28;20030;-77
2020/12/04 05:09:43;;;;;;;4.18;1.33;;;;;;;11.62;40.74;98161.47;4977024;28;20034;-78
2020/12/04 05:12:08;;;;;;;3.87;1.40;;;;;;;11.70;40.54;98147.81;4976752;28;20385;-77
2020/12/04 05:14:34;;;;;;;2.27;1.30;;;;;;;11.75;40.55;98150.19;4991696;28;20039;-77
2020/12/04 05:17:08;;;;;;;3.57;1.47;;;;;;;11.65;40.69;98155.25;4976605;28;20398;-77
2020/12/04 05:19:38;;;;;;;2.23;1.20;;;;;;;11.77;40.58;98153.34;4991582;28;20019;-77
2020/12/04 05:22:11;;;;;;;;;;;;;;;11.51;41.29;98151.63;4976970;28;20038;-78
2020/12/04 05:24:37;;;;;;;4.73;1.53;;;;;;;11.78;40.63;98146.69;4991488;28;19914;-77
2020/12/04 05:27:23;;;;;;;1.73;0.97;;;;;;;11.66;40.86;98154.06;4976401;28;20085;-77
2020/12/04 05:29:51;;;;;;;2.43;1.27;;;;;;;12.23;39.58;98148.84;4991505;28;20366;-77
2020/12/04 05:32:17;;;;;;;8.23;1.10;;;;;;;12.30;39.52;98150.06;4976360;28;20543;-77
2020/12/04 05:34:43;;;;;;;2.73;1.10;;;;;;;12.50;38.74;98138.38;4976360;28;20027;-77
2020/12/04 05:37:10;;;;;;;4.80;1.10;;;;;;;12.31;39.22;98148.88;4976186;28;20389;-77
2020/12/04 05:39:48;;;;;;;2.63;1.10;;;;;;;12.47;39.15;98152.06;4991289;28;20031;-77
2020/12/04 05:42:40;;;;;;;3.53;1.00;;;;;;;12.31;39.08;98155.13;4991175;28;20026;-77
2020/12/04 05:45:07;;;;;;;10.40;2.30;;;;;;;12.54;38.68;98156.75;4975805;28;20500;-78
2020/12/04 05:47:40;;;;;;;1.90;0.80;;;;;;;12.20;39.45;98146.91;4976044;28;20034;-77
2020/12/04 05:50:09;;;;;;;6.13;1.00;;;;;;;12.33;39.05;98165.72;4991122;28;20122;-77
2020/12/04 05:52:36;;;;;;;1.73;1.10;;;;;;;12.47;38.58;98160.28;4990724;28;20026;-78
2020/12/04 05:55:08;;;;;;;1.87;1.00;;;;;;;12.44;38.62;98169.25;4976013;28;20030;-77
2020/12/04 05:57:47;;;;;;;5.00;1.37;;;;;;;12.03;39.57;98166.00;4990947;28;20034;-77
2020/12/04 06:00:14;;;;;;;6.50;1.38;;;;;;;12.31;39.04;98157.88;4975902;28;20026;-77
2020/12/04 06:02:40;;;;;;;4.67;1.10;;;;;;;12.28;38.97;98164.13;4990729;28;20031;-77
2020/12/04 06:05:10;;;;;;;2.43;1.00;;;;;;;12.46;38.55;98162.22;4974488;28;20031;-78
2020/12/04 06:07:36;;;;;;;;;;;;;;;12.05;39.20;98172.66;4991010;28;20487;-80
2020/12/04 06:10:03;;;;;;;2.57;1.33;;;;;;;12.43;38.37;98165.75;4989923;28;19921;-81
2020/12/04 06:12:28;;;;;;;9.00;4.40;;;;;;;12.45;38.52;98162.63;4990453;28;20085;-77
2020/12/04 06:14:54;;;;;;;3.77;1.07;;;;;;;12.19;38.95;98166.47;4975675;28;20441;-78
2020/12/04 06:17:20;;;;;;;3.03;1.73;;;;;;;12.36;38.48;98156.72;4984455;28;20055;-81
2020/12/04 06:19:45;;;;;;;5.53;2.63;;;;;;;12.44;38.52;98172.00;4989830;28;20064;-82
2020/12/04 06:22:19;;;;;;;7.00;6.27;;;;;;;12.38;38.84;98163.38;4992586;28;20056;-81
2020/12/04 06:24:48;;;;;;;3.00;1.57;;;;;;;12.43;38.74;98159.47;5003482;28;20026;-81
2020/12/04 06:27:39;;;;;;;3.27;1.37;;;;;;;12.17;39.30;98164.13;4998741;28;20025;-81
2020/12/04 06:30:06;;;;;;;3.23;1.27;;;;;;;12.44;38.85;98166.53;5004871;28;20021;-81
2020/12/04 06:32:45;;;;;;;3.73;2.10;;;;;;;12.28;39.13;98166.88;5000059;28;20056;-77
2020/12/04 06:35:11;;;;;;;6.03;1.27;;;;;;;12.30;39.25;98159.06;5019652;28;20057;-77
2020/12/04 06:37:46;;;;;;;11.63;10.53;;;;;;;12.38;39.00;98159.84;5010719;28;20057;-77
2020/12/04 06:40:30;;;;;;;6.93;3.57;;;;;;;12.44;38.66;98152.84;4997003;28;20030;-78
2020/12/04 06:43:00;;;;;;;4.17;2.13;;;;;;;12.44;38.59;98155.56;4991555;28;20105;-77
2020/12/04 06:45:45;;;;;;;3.57;1.00;;;;;;;11.98;39.98;98153.47;4993081;28;20029;-80
2020/12/04 06:48:16;;;;;;;3.73;0.83;;;;;;;11.62;41.02;98147.78;4991066;28;20129;-81
2020/12/04 06:50:47;;;;;;;2.13;0.87;;;;;;;12.28;39.76;98147.72;4991568;28;20019;-81
2020/12/04 06:53:14;;;;;;;1.77;0.70;;;;;;;12.61;39.11;98138.38;4993084;28;20022;-78
2020/12/04 06:55:40;;;;;;;1.23;0.57;;;;;;;12.62;38.92;98150.94;4993086;28;20101;-78
2020/12/04 06:58:07;;;;;;;1.97;0.57;;;;;;;12.64;38.92;98151.31;4993245;28;20079;-79
2020/12/04 07:00:33;;;;;;;2.03;0.93;;;;;;;12.68;38.96;98143.09;4993301;28;20052;-78
2020/12/04 07:03:00;;;;;;;0.67;0.47;;;;;;;12.11;40.24;98159.41;4991960;28;20026;-78
2020/12/04 07:05:27;;;;;;;5.47;0.70;;;;;;;12.59;39.27;98150.91;4993909;28;20447;-77
2020/12/04 07:08:07;;;;;;;3.87;0.80;;;;;;;12.42;39.22;98160.66;4995434;28;20740;-78
2020/12/04 07:10:34;;;;;;;3.17;0.83;;;;;;;12.46;39.09;98167.69;4978719;28;20034;-78
2020/12/04 07:13:02;;;;;;;5.57;1.10;;;;;;;12.50;38.78;98162.25;4992726;28;20101;-78
2020/12/04 07:15:28;;;;;;;2.63;0.90;;;;;;;12.37;38.81;98171.97;4993212;28;20077;-77
2020/12/04 07:17:53;;;;;;;1.77;0.80;;;;;;;12.51;38.53;98166.53;4993750;28;20084;-80
2020/12/04 07:20:20;;;;;;;0.93;0.57;;;;;;;12.61;38.60;98175.94;4992832;28;20030;-78
2020/12/04 07:22:45;;;;;;;3.57;1.07;;;;;;;12.56;38.44;98173.63;4992594;28;20037;-79
2020/12/04 07:25:11;;;;;;;6.67;1.57;;;;;;;12.50;38.67;98175.94;4992380;28;20481;-78
2020/12/04 07:27:37;;;;;;;3.57;1.00;;;;;;;12.12;39.39;98169.94;4993474;28;20076;-79
2020/12/04 07:30:25;;;;;;;3.20;1.00;;;;;;;12.25;39.26;98172.34;4993732;28;20029;-78
2020/12/04 07:32:53;;;;;;;5.43;1.20;;;;;;;12.04;39.54;98171.09;4993803;28;20046;-80
2020/12/04 07:35:19;;;;;;;3.57;0.80;;;;;;;12.16;39.65;98165.25;4992232;28;20053;-79
2020/12/04 07:37:45;;;;;;;2.97;1.07;;;;;;;12.32;39.08;98164.94;4992131;28;20042;-79
2020/12/04 07:40:13;;;;;;;1.90;0.93;;;;;;;12.25;39.26;98166.88;4993496;28;20030;-78
2020/12/04 07:42:39;;;;;;;4.77;1.23;;;;;;;12.41;38.92;98161.84;4992329;28;20430;-79
2020/12/04 07:45:04;;;;;;;2.87;0.90;;;;;;;11.93;39.92;98176.50;4993053;28;20070;-79
2020/12/04 07:47:30;;;;;;;2.37;1.20;;;;;;;12.19;39.45;98171.94;4992762;28;20041;-78
2020/12/04 07:50:00;;;;;;;2.83;0.73;;;;;;;12.17;39.54;98179.75;4992409;28;20034;-78
2020/12/04 07:52:36;;;;;;;;;;;;;;;11.92;40.32;98171.41;4990756;28;20137;-78
2020/12/04 07:55:11;;;;;;;1.53;0.93;;;;;;;12.22;39.65;98171.94;4990799;28;19921;-78
2020/12/04 07:57:43;;;;;;;2.60;1.07;;;;;;;12.47;38.99;98177.50;4992168;28;20118;-78
2020/12/04 08:00:13;;;;;;;2.83;1.00;;;;;;;12.40;39.33;98177.50;4991895;28;20038;-75
2020/12/04 08:02:39;;;;;;;3.83;1.00;;;;;;;12.32;39.43;98169.59;4991715;28;20425;-78
2020/12/04 08:05:05;;;;;;;2.43;0.87;;;;;;;12.41;39.12;98167.31;4991728;28;20041;-79
2020/12/04 08:07:32;;;;;;;2.60;0.80;;;;;;;12.48;39.29;98178.28;5007908;28;20125;-78
2020/12/04 08:10:00;;;;;;;8.73;1.53;;;;;;;12.26;39.76;98173.91;4993088;28;20041;-79
2020/12/04 08:12:33;;;;;;;1.97;0.83;;;;;;;12.34;39.70;98178.25;4992969;28;20032;-77
2020/12/04 08:15:03;;;;;;;4.20;1.40;;;;;;;12.43;39.60;98176.69;4989526;28;20480;-77
2020/12/04 08:17:31;;;;;;;4.67;0.80;;;;;;;12.60;39.20;98182.59;4992705;28;20023;-77
2020/12/04 08:19:59;;;;;;;2.50;0.70;;;;;;;12.53;39.52;98169.66;4991595;28;20089;-76
2020/12/04 08:22:32;;;;;;;5.23;1.50;;;;;;;12.47;39.56;98168.50;4991670;28;20117;-77
2020/12/04 08:25:04;;;;;;;1.93;1.00;;;;;;;12.48;39.62;98172.81;4994276;28;20026;-77
2020/12/04 08:27:32;;;;;;;2.77;0.93;;;;;;;12.34;39.92;98172.75;4995537;28;20025;-79
2020/12/04 08:30:02;;;;;;;4.27;1.33;;;;;;;12.20;40.40;98170.75;4994527;28;20109;-77
2020/12/04 08:32:28;;;;;;;5.10;1.23;;;;;;;12.17;40.61;98169.59;4994720;28;20505;-77
2020/12/04 08:35:12;;;;;;;4.83;1.67;;;;;;;11.88;41.66;98167.91;4996676;28;20056;-79
2020/12/04 08:37:37;;;;;;;5.37;0.83;;;;;;;11.93;41.06;98160.09;4995128;28;20022;-78
2020/12/04 08:40:04;;;;;;;3.70;0.87;;;;;;;12.13;40.93;98163.31;4997223;28;20430;-77
2020/12/04 08:42:34;;;;;;;3.67;0.70;;;;;;;12.03;41.09;98155.84;4996730;28;20681;-80
2020/12/04 08:45:08;;;;;;;4.00;0.80;;;;;;;12.37;40.20;98147.34;4997188;28;20022;-78
2020/12/04 08:47:42;;;;;;;3.63;0.70;;;;;;;12.16;40.70;98156.25;4996791;28;20030;-78
2020/12/04 08:50:23;;;;;;;4.50;1.00;;;;;;;12.15;40.87;98152.75;4996551;28;20480;-78
2020/12/04 08:52:52;;;;;;;4.47;1.07;;;;;;;12.45;39.88;98151.66;4994515;28;20491;-78
2020/12/04 08:55:26;;;;;;;6.67;1.23;;;;;;;12.15;40.69;98144.53;4996342;28;20823;-79
2020/12/04 08:57:56;;;;;;;1.63;0.80;;;;;;;12.04;41.02;98104.63;4997129;28;20034;-79
2020/12/04 09:00:32;;;;;;;3.45;1.70;;;;;;;12.39;40.41;98137.59;4997099;28;20034;-76
2020/12/04 09:02:58;;;;;;;1.93;0.83;;;;;;;12.44;40.60;98144.63;4997090;28;20029;-79
2020/12/04 09:05:23;;;;;;;3.93;0.97;;;;;;;12.78;39.68;98132.16;4992295;28;20456;-78
2020/12/04 09:07:49;;;;;;;7.10;1.40;;;;;;;12.68;40.09;98124.69;4995610;28;20037;-77
2020/12/04 09:10:17;;;;;;;6.97;1.40;;;;;;;12.75;39.62;98135.66;4995231;28;20028;-76
2020/12/04 09:12:45;;;;;;;5.03;1.10;;;;;;;12.05;41.60;98139.81;4995820;28;20018;-76
2020/12/04 09:15:13;;;;;;;3.87;1.00;;;;;;;12.22;41.25;98128.13;4999227;28;20530;-77
2020/12/04 09:17:39;;;;;;;5.87;1.30;;;;;;;12.09;41.73;98135.16;4994813;28;20039;-78
2020/12/04 09:20:08;;;;;;;5.00;0.97;;;;;;;12.75;40.13;98121.97;4994126;28;20385;-77
2020/12/04 09:22:34;;;;;;;5.63;0.87;;;;;;;12.78;40.34;98115.72;4994188;28;20077;-76
2020/12/04 09:25:02;;;;;;;5.43;1.27;;;;;;;13.41;38.86;98126.25;4994486;28;20084;-79
2020/12/04 09:27:28;;;;;;;3.13;1.00;;;;;;;13.84;37.96;98124.97;4994439;28;20037;-80
2020/12/04 09:29:54;;;;;;;7.53;1.27;;;;;;;13.98;37.81;98129.63;4994234;28;20451;-78
2020/12/04 09:32:20;;;;;;;4.53;1.73;;;;;;;14.09;37.24;98130.34;4992755;28;20122;-79
2020/12/04 09:34:47;;;;;;;4.57;1.07;;;;;;;14.02;37.70;98122.16;4994681;28;20113;-81
2020/12/04 09:37:24;;;;;;;7.70;1.43;;;;;;;13.81;38.11;98119.47;4995730;28;20049;-78
2020/12/04 09:40:01;;;;;;;7.10;1.77;;;;;;;13.84;37.97;98126.94;4995894;28;20092;-77
2020/12/04 09:42:27;;;;;;;7.43;1.33;;;;;;;14.57;36.59;98121.47;4995921;28;20058;-78
2020/12/04 09:44:55;;;;;;;4.85;1.30;;;;;;;14.61;36.36;98113.22;4994684;28;20030;-77
2020/12/04 09:47:22;;;;;;;5.03;1.10;;;;;;;14.78;36.37;98104.06;4993936;28;20038;-77
2020/12/04 09:49:48;;;;;;;5.30;1.53;;;;;;;14.77;36.31;98102.50;4995872;28;20030;-78
2020/12/04 09:52:16;;;;;;;6.93;1.13;;;;;;;14.57;36.46;98104.19;4995638;28;20022;-78
2020/12/04 09:54:43;;;;;;;3.93;1.20;;;;;;;14.16;37.48;98102.06;4994151;28;20031;-77
2020/12/04 09:57:11;;;;;;;4.33;1.20;;;;;;;14.15;37.64;98095.03;4995644;28;20026;-84
2020/12/04 09:59:37;;;;;;;4.40;1.30;;;;;;;14.55;36.66;98101.09;4995565;28;20366;-77
2020/12/04 10:02:04;;;;;;;8.13;1.67;;;;;;;14.67;36.40;98086.88;4995333;28;20030;-78
2020/12/04 10:04:30;;;;;;;6.15;2.63;;;;;;;14.87;36.14;98084.34;4995207;28;20028;-78
2020/12/04 10:06:56;;;;;;;5.47;1.20;;;;;;;15.13;35.63;98091.19;4994822;28;20080;-78
2020/12/04 10:09:23;;;;;;;3.45;1.10;;;;;;;15.17;35.69;98098.22;4992408;28;20057;-78
2020/12/04 10:11:49;;;;;;;3.60;1.40;;;;;;;15.46;35.02;98073.94;4994124;28;20092;-77
2020/12/04 10:14:15;;;;;;;10.75;6.32;;;;;;;15.48;35.02;98076.28;4992932;28;20461;-78
2020/12/04 10:16:42;;;;;;;5.32;1.30;;;;;;;14.86;36.16;98089.06;4994331;28;20117;-77
2020/12/04 10:19:09;;;;;;;4.90;1.50;;;;;;;14.96;36.21;98079.16;4992879;28;20084;-77
2020/12/04 10:21:36;;;;;;;6.30;1.95;;;;;;;15.23;35.21;98082.06;4994088;28;20058;-77
2020/12/04 10:24:03;;;;;;;10.40;2.08;;;;;;;15.25;34.92;98072.19;4991382;28;20041;-78
2020/12/04 10:26:29;;;;;;;9.50;2.58;;;;;;;15.85;33.95;98061.72;4992867;28;20539;-85
2020/12/04 10:28:54;;;;;;;12.82;5.63;;;;;;;15.70;34.28;98068.59;4993957;28;20026;-78
2020/12/04 10:31:20;;;;;;;15.90;2.83;;;;;;;15.79;33.90;98074.38;4994251;28;20026;-78
2020/12/04 10:33:46;;;;;;;10.00;2.78;;;;;;;15.66;34.25;98070.63;4994060;28;20026;-77
2020/12/04 10:36:13;;;;;;;4.50;1.90;;;;;;;15.76;33.95;98077.97;4994008;28;20033;-77
2020/12/04 10:38:39;;;;;;;5.88;1.95;;;;;;;15.74;34.07;98066.59;5008506;28;20033;-77
2020/12/04 10:41:04;;;;;;;6.22;2.17;;;;;;;14.98;34.74;98069.34;4993477;28;20046;-77
2020/12/04 10:43:30;;;;;;;5.80;1.65;;;;;;;15.33;34.66;98072.13;4993998;28;20073;-83
2020/12/04 10:45:56;;;;;;;10.13;2.50;;;;;;;15.32;34.81;98081.56;4993689;28;20077;-78
2020/12/04 10:48:21;;;;;;;5.90;1.45;;;;;;;15.32;34.79;98068.59;4992398;28;20057;-77
2020/12/04 10:50:48;;;;;;;5.93;1.33;;;;;;;15.51;34.27;98067.22;4993363;28;20121;-77
2020/12/04 10:53:14;;;;;;;18.98;6.57;;;;;;;15.70;33.85;98069.38;4993704;28;20026;-78
2020/12/04 10:55:43;;;;;;;9.57;4.20;;;;;;;15.30;34.41;98075.69;5000225;28;20026;-77
2020/12/04 10:58:10;;;;;;;9.00;2.63;;;;;;;15.41;34.24;98057.88;4991922;28;20136;-78
2020/12/04 11:00:36;;;;;;;30.20;25.20;;;;;;;15.47;34.49;98050.75;4992160;28;20497;-77
2020/12/04 11:03:18;;;;;;;12.43;5.75;;;;;;;15.65;34.04;98036.03;4992151;28;20034;-77
2020/12/04 11:05:45;;;;;;;5.03;1.45;;;;;;;15.05;35.23;98032.75;4991613;28;20026;-77
2020/12/04 11:08:10;;;;;;;12.85;6.32;;;;;;;15.13;35.19;98019.69;4993897;28;20031;-77
2020/12/04 11:10:36;;;;;;;6.45;2.83;;;;;;;15.57;34.39;98023.50;4996955;28;20484;-79
2020/12/04 11:13:03;;;;;;;9.55;3.63;;;;;;;15.43;34.68;98025.25;4997343;28;20084;-78
2020/12/04 11:15:30;;;;;;;6.25;1.80;;;;;;;15.55;34.42;98005.44;4997673;28;20037;-78
2020/12/04 11:17:55;;;;;;;7.85;1.77;;;;;;;15.64;34.55;97993.97;4997904;28;20075;-77
2020/12/04 11:20:22;;;;;;;8.93;2.10;;;;;;;15.79;34.39;97997.28;4997653;28;20034;-79
2020/12/04 11:22:48;;;;;;;5.78;1.95;;;;;;;15.18;35.66;97995.25;4997110;28;20029;-78
2020/12/04 11:25:15;;;;;;;12.27;2.92;;;;;;;15.81;34.52;97987.44;4997473;28;20025;-78
2020/12/04 11:27:44;;;;;;;8.02;1.65;;;;;;;15.93;34.36;97997.09;4997150;28;20476;-77
2020/12/04 11:30:16;;;;;;;7.35;1.77;;;;;;;15.97;34.22;98000.59;4997165;28;20037;-78
2020/12/04 11:32:47;;;;;;;11.55;2.22;;;;;;;15.55;34.94;97997.16;4997295;28;20022;-84
2020/12/04 11:35:14;;;;;;;7.53;2.17;;;;;;;15.90;34.92;97991.66;4997047;28;20377;-78